sensor_id;sensor_type;location;lat;lon;timestamp;pressure;altitude;pressure_sealevel;temperature;humidity
30110;BME280;14965;50.660;13.226;2023-02-19T00:02:10;94818.97;;;5.40;100.00
30110;BME280;14965;50.660;13.226;2023-02-19T00:04:36;94822.06;;;5.42;100.00
30110;BME280;14965;50.660;13.226;2023-02-19T00:07:02;94818.13;;;5.43;100.00
30110;BME280;14965;50.660;13.226;2023-02-19T00:09:29;94815.38;;;5.43;100.00
30110;BME280;14965;50.660;13.226;2023-02-19T00:11:55;94800.88;;;5.46;100.00
30110;BME280;14965;50.660;13.226;2023-02-19T00:14:21;94808.34;;;5.45;100.00
30110;BME280;14965;50.660;13.226;2023-02-19T00:16:47;94799.31;;;5.48;100.00
30110;BME280;14965;50.660;13.226;2023-02-19T00:19:16;94802.09;;;5.45;100.00
30110;BME280;14965;50.660;13.226;2023-02-19T00:21:42;94800.16;;;5.42;100.00
30110;BME280;14965;50.660;13.226;2023-02-19T00:24:12;94797.03;;;5.43;100.00
30110;BME280;14965;50.660;13.226;2023-02-19T00:26:40;94788.38;;;5.45;100.00
30110;BME280;14965;50.660;13.226;2023-02-19T00:29:06;94789.16;;;5.45;100.00
30110;BME280;14965;50.660;13.226;2023-02-19T00:31:34;94786.44;;;5.45;100.00
30110;BME280;14965;50.660;13.226;2023-02-19T00:34:04;94785.72;;;5.38;100.00
30110;BME280;14965;50.660;13.226;2023-02-19T00:36:32;94784.53;;;5.39;100.00
30110;BME280;14965;50.660;13.226;2023-02-19T00:38:58;94780.97;;;5.42;100.00
30110;BME280;14965;50.660;13.226;2023-02-19T00:41:24;94782.16;;;5.41;100.00
30110;BME280;14965;50.660;13.226;2023-02-19T00:43:54;94782.53;;;5.43;100.00
30110;BME280;14965;50.660;13.226;2023-02-19T00:46:23;94775.50;;;5.42;100.00
30110;BME280;14965;50.660;13.226;2023-02-19T00:48:49;94776.66;;;5.44;100.00
30110;BME280;14965;50.660;13.226;2023-02-19T00:51:15;94766.47;;;5.45;100.00
30110;BME280;14965;50.660;13.226;2023-02-19T00:53:42;94773.88;;;5.48;100.00
30110;BME280;14965;50.660;13.226;2023-02-19T00:56:08;94763.31;;;5.46;100.00
30110;BME280;14965;50.660;13.226;2023-02-19T00:58:34;94770.34;;;5.47;100.00
30110;BME280;14965;50.660;13.226;2023-02-19T01:01:02;94768.41;;;5.48;100.00
30110;BME280;14965;50.660;13.226;2023-02-19T01:03:28;94755.09;;;5.46;100.00
30110;BME280;14965;50.660;13.226;2023-02-19T01:05:54;94755.50;;;5.48;100.00
30110;BME280;14965;50.660;13.226;2023-02-19T01:08:20;94756.25;;;5.49;100.00
30110;BME280;14965;50.660;13.226;2023-02-19T01:10:47;94746.84;;;5.50;100.00
30110;BME280;14965;50.660;13.226;2023-02-19T01:13:13;94748.84;;;5.46;100.00
30110;BME280;14965;50.660;13.226;2023-02-19T01:15:39;94747.72;;;5.43;100.00
30110;BME280;14965;50.660;13.226;2023-02-19T01:18:06;94739.53;;;5.40;100.00
30110;BME280;14965;50.660;13.226;2023-02-19T01:20:32;94737.94;;;5.42;100.00
30110;BME280;14965;50.660;13.226;2023-02-19T01:22:58;94735.19;;;5.42;100.00
30110;BME280;14965;50.660;13.226;2023-02-19T01:25:24;94734.41;;;5.42;100.00
30110;BME280;14965;50.660;13.226;2023-02-19T01:27:50;94729.38;;;5.40;100.00
30110;BME280;14965;50.660;13.226;2023-02-19T01:30:16;94728.63;;;5.36;100.00
30110;BME280;14965;50.660;13.226;2023-02-19T01:32:41;94713.03;;;5.30;100.00
30110;BME280;14965;50.660;13.226;2023-02-19T01:35:09;94718.16;;;5.28;100.00
30110;BME280;14965;50.660;13.226;2023-02-19T01:37:34;94707.22;;;5.28;100.00
30110;BME280;14965;50.660;13.226;2023-02-19T01:40:00;94699.81;;;5.24;100.00
30110;BME280;14965;50.660;13.226;2023-02-19T01:42:26;94698.66;;;5.22;100.00
30110;BME280;14965;50.660;13.226;2023-02-19T01:45:26;94678.34;;;5.19;100.00
30110;BME280;14965;50.660;13.226;2023-02-19T01:48:03;94679.63;;;5.11;100.00
30110;BME280;14965;50.660;13.226;2023-02-19T01:50:38;94687.06;;;5.11;100.00
30110;BME280;14965;50.660;13.226;2023-02-19T01:53:11;94666.66;;;5.15;100.00
30110;BME280;14965;50.660;13.226;2023-02-19T01:55:39;94672.19;;;5.12;100.00
30110;BME280;14965;50.660;13.226;2023-02-19T01:58:08;94666.66;;;5.15;100.00
30110;BME280;14965;50.660;13.226;2023-02-19T02:00:35;94650.25;;;5.15;100.00
30110;BME280;14965;50.660;13.226;2023-02-19T02:03:02;94649.06;;;5.16;100.00
30110;BME280;14965;50.660;13.226;2023-02-19T02:05:41;94653.75;;;5.16;100.00
30110;BME280;14965;50.660;13.226;2023-02-19T02:08:12;94649.84;;;5.13;100.00
30110;BME280;14965;50.660;13.226;2023-02-19T02:10:38;94645.53;;;5.16;100.00
30110;BME280;14965;50.660;13.226;2023-02-19T02:13:04;94620.13;;;5.15;100.00
30110;BME280;14965;50.660;13.226;2023-02-19T02:15:41;94624.88;;;5.11;100.00
30110;BME280;14965;50.660;13.226;2023-02-19T02:18:22;94625.66;;;5.12;100.00
30110;BME280;14965;50.660;13.226;2023-02-19T02:21:26;94622.13;;;5.11;100.00
30110;BME280;14965;50.660;13.226;2023-02-19T02:24:19;94625.22;;;5.13;100.00
30110;BME280;14965;50.660;13.226;2023-02-19T02:27:05;94616.63;;;5.15;100.00
30110;BME280;14965;50.660;13.226;2023-02-19T02:30:17;94627.56;;;5.15;100.00
30110;BME280;14965;50.660;13.226;2023-02-19T02:32:56;94624.78;;;5.18;100.00
30110;BME280;14965;50.660;13.226;2023-02-19T02:35:28;94615.44;;;5.16;100.00
30110;BME280;14965;50.660;13.226;2023-02-19T02:37:59;94607.63;;;5.14;100.00
30110;BME280;14965;50.660;13.226;2023-02-19T02:40:27;94594.31;;;5.16;100.00
30110;BME280;14965;50.660;13.226;2023-02-19T02:42:56;94598.22;;;5.15;100.00
30110;BME280;14965;50.660;13.226;2023-02-19T02:45:31;94598.22;;;5.15;100.00
30110;BME280;14965;50.660;13.226;2023-02-19T02:47:57;94588.41;;;5.18;100.00
30110;BME280;14965;50.660;13.226;2023-02-19T02:50:29;94586.47;;;5.18;100.00
30110;BME280;14965;50.660;13.226;2023-02-19T02:53:02;94585.28;;;5.19;100.00
30110;BME280;14965;50.660;13.226;2023-02-19T02:55:34;94579.03;;;5.19;100.00
30110;BME280;14965;50.660;13.226;2023-02-19T02:58:03;94575.50;;;5.18;100.00
30110;BME280;14965;50.660;13.226;2023-02-19T03:00:34;94565.69;;;5.21;100.00
30110;BME280;14965;50.660;13.226;2023-02-19T03:03:01;94573.56;;;5.19;100.00
30110;BME280;14965;50.660;13.226;2023-02-19T03:05:27;94563.38;;;5.19;100.00
30110;BME280;14965;50.660;13.226;2023-02-19T03:08:00;94569.25;;;5.18;100.00
30110;BME280;14965;50.660;13.226;2023-02-19T03:10:34;94574.72;;;5.18;100.00
30110;BME280;14965;50.660;13.226;2023-02-19T03:13:02;94575.88;;;5.20;100.00
30110;BME280;14965;50.660;13.226;2023-02-19T03:15:38;94569.97;;;5.22;100.00
30110;BME280;14965;50.660;13.226;2023-02-19T03:18:10;94557.91;;;5.19;100.00
30110;BME280;14965;50.660;13.226;2023-02-19T03:20:40;94563.00;;;5.17;100.00
30110;BME280;14965;50.660;13.226;2023-02-19T03:23:10;94563.75;;;5.18;100.00
30110;BME280;14965;50.660;13.226;2023-02-19T03:25:38;94550.09;;;5.18;100.00
30110;BME280;14965;50.660;13.226;2023-02-19T03:28:08;94542.28;;;5.16;100.00
30110;BME280;14965;50.660;13.226;2023-02-19T03:30:46;94552.81;;;5.18;100.00
30110;BME280;14965;50.660;13.226;2023-02-19T03:33:18;94553.25;;;5.16;100.00
30110;BME280;14965;50.660;13.226;2023-02-19T03:35:52;94546.19;;;5.19;100.00
30110;BME280;14965;50.660;13.226;2023-02-19T03:38:27;94547.72;;;5.20;100.00
30110;BME280;14965;50.660;13.226;2023-02-19T03:40:59;94551.22;;;5.20;100.00
30110;BME280;14965;50.660;13.226;2023-02-19T03:43:39;94549.69;;;5.19;100.00
30110;BME280;14965;50.660;13.226;2023-02-19T03:46:11;94554.34;;;5.22;100.00
30110;BME280;14965;50.660;13.226;2023-02-19T03:48:49;94544.50;;;5.25;100.00
30110;BME280;14965;50.660;13.226;2023-02-19T03:51:26;94534.00;;;5.23;100.00
30110;BME280;14965;50.660;13.226;2023-02-19T03:54:11;94537.06;;;5.25;100.00
30110;BME280;14965;50.660;13.226;2023-02-19T03:56:46;94530.41;;;5.27;100.00
30110;BME280;14965;50.660;13.226;2023-02-19T03:59:20;94531.22;;;5.27;100.00
30110;BME280;14965;50.660;13.226;2023-02-19T04:01:54;94523.81;;;5.24;100.00
30110;BME280;14965;50.660;13.226;2023-02-19T04:04:26;94525.34;;;5.25;100.00
30110;BME280;14965;50.660;13.226;2023-02-19T04:06:56;94528.47;;;5.27;100.00
30110;BME280;14965;50.660;13.226;2023-02-19T04:09:27;94525.31;;;5.29;100.00
30110;BME280;14965;50.660;13.226;2023-02-19T04:11:55;94529.25;;;5.28;100.00
30110;BME280;14965;50.660;13.226;2023-02-19T04:14:27;94535.06;;;5.30;100.00
30110;BME280;14965;50.660;13.226;2023-02-19T04:17:02;94535.84;;;5.30;100.00
30110;BME280;14965;50.660;13.226;2023-02-19T04:19:34;94523.28;;;5.33;100.00
30110;BME280;14965;50.660;13.226;2023-02-19T04:22:05;94529.13;;;5.35;100.00
30110;BME280;14965;50.660;13.226;2023-02-19T04:24:38;94531.84;;;5.35;100.00
30110;BME280;14965;50.660;13.226;2023-02-19T04:27:05;94521.72;;;5.35;100.00
30110;BME280;14965;50.660;13.226;2023-02-19T04:29:33;94517.41;;;5.34;100.00
30110;BME280;14965;50.660;13.226;2023-02-19T04:32:00;94497.41;;;5.37;100.00
30110;BME280;14965;50.660;13.226;2023-02-19T04:34:27;94513.41;;;5.39;100.00
30110;BME280;14965;50.660;13.226;2023-02-19T04:36:53;94515.34;;;5.42;100.00
30110;BME280;14965;50.660;13.226;2023-02-19T04:39:18;94510.63;;;5.42;100.00
30110;BME280;14965;50.660;13.226;2023-02-19T04:41:44;94509.84;;;5.42;100.00
30110;BME280;14965;50.660;13.226;2023-02-19T04:44:10;94525.09;;;5.43;100.00
30110;BME280;14965;50.660;13.226;2023-02-19T04:46:36;94511.06;;;5.41;100.00
30110;BME280;14965;50.660;13.226;2023-02-19T04:49:03;94500.53;;;5.39;100.00
30110;BME280;14965;50.660;13.226;2023-02-19T04:51:29;94510.28;;;5.40;100.00
30110;BME280;14965;50.660;13.226;2023-02-19T04:53:55;94499.31;;;5.40;100.00
30110;BME280;14965;50.660;13.226;2023-02-19T04:56:21;94511.06;;;5.41;100.00
30110;BME280;14965;50.660;13.226;2023-02-19T04:58:47;94518.06;;;5.42;100.00
30110;BME280;14965;50.660;13.226;2023-02-19T05:01:13;94520.81;;;5.42;100.00
30110;BME280;14965;50.660;13.226;2023-02-19T05:03:39;94512.19;;;5.43;100.00
30110;BME280;14965;50.660;13.226;2023-02-19T05:06:09;94513.78;;;5.41;100.00
30110;BME280;14965;50.660;13.226;2023-02-19T05:08:36;94516.53;;;5.41;100.00
30110;BME280;14965;50.660;13.226;2023-02-19T05:11:04;94503.59;;;5.41;100.00
30110;BME280;14965;50.660;13.226;2023-02-19T05:13:31;94515.81;;;5.37;100.00
30110;BME280;14965;50.660;13.226;2023-02-19T05:15:59;94525.59;;;5.34;100.00
30110;BME280;14965;50.660;13.226;2023-02-19T05:18:26;94508.78;;;5.36;100.00
30110;BME280;14965;50.660;13.226;2023-02-19T05:20:53;94503.66;;;5.38;100.00
30110;BME280;14965;50.660;13.226;2023-02-19T05:23:20;94516.56;;;5.37;100.00
30110;BME280;14965;50.660;13.226;2023-02-19T05:25:47;94516.16;;;5.39;100.00
30110;BME280;14965;50.660;13.226;2023-02-19T05:28:13;94508.75;;;5.39;100.00
30110;BME280;14965;50.660;13.226;2023-02-19T05:30:39;94500.44;;;5.43;100.00
30110;BME280;14965;50.660;13.226;2023-02-19T05:33:05;94496.16;;;5.42;100.00
30110;BME280;14965;50.660;13.226;2023-02-19T05:35:31;94507.06;;;5.45;100.00
30110;BME280;14965;50.660;13.226;2023-02-19T05:37:56;94495.28;;;5.48;100.00
30110;BME280;14965;50.660;13.226;2023-02-19T05:40:24;94500.41;;;5.46;100.00
30110;BME280;14965;50.660;13.226;2023-02-19T05:42:49;94505.09;;;5.46;100.00
30110;BME280;14965;50.660;13.226;2023-02-19T05:45:15;94488.25;;;5.47;100.00
30110;BME280;14965;50.660;13.226;2023-02-19T05:47:41;94500.34;;;5.50;100.00
30110;BME280;14965;50.660;13.226;2023-02-19T05:50:07;94497.59;;;5.50;100.00
30110;BME280;14965;50.660;13.226;2023-02-19T05:52:33;94503.09;;;5.50;100.00
30110;BME280;14965;50.660;13.226;2023-02-19T05:54:59;94498.81;;;5.49;100.00
30110;BME280;14965;50.660;13.226;2023-02-19T05:57:26;94528.22;;;5.45;100.00
30110;BME280;14965;50.660;13.226;2023-02-19T05:59:52;94522.78;;;5.41;100.00
30110;BME280;14965;50.660;13.226;2023-02-19T06:02:17;94530.22;;;5.41;100.00
30110;BME280;14965;50.660;13.226;2023-02-19T06:04:43;94514.97;;;5.40;100.00
30110;BME280;14965;50.660;13.226;2023-02-19T06:07:09;94526.75;;;5.37;100.00
30110;BME280;14965;50.660;13.226;2023-02-19T06:09:35;94524.03;;;5.37;100.00
30110;BME280;14965;50.660;13.226;2023-02-19T06:12:01;94527.56;;;5.34;100.00
30110;BME280;14965;50.660;13.226;2023-02-19T06:14:28;94532.69;;;5.32;100.00
30110;BME280;14965;50.660;13.226;2023-02-19T06:16:54;94546.41;;;5.32;100.00
30110;BME280;14965;50.660;13.226;2023-02-19T06:19:19;94546.75;;;5.34;100.00
30110;BME280;14965;50.660;13.226;2023-02-19T06:21:48;94550.69;;;5.33;100.00
30110;BME280;14965;50.660;13.226;2023-02-19T06:24:14;94553.84;;;5.31;100.00
30110;BME280;14965;50.660;13.226;2023-02-19T06:26:40;94558.50;;;5.31;100.00
30110;BME280;14965;50.660;13.226;2023-02-19T06:29:06;94564.41;;;5.29;100.00
30110;BME280;14965;50.660;13.226;2023-02-19T06:31:34;94586.75;;;5.28;100.00
30110;BME280;14965;50.660;13.226;2023-02-19T06:34:03;94582.81;;;5.29;100.00
30110;BME280;14965;50.660;13.226;2023-02-19T06:36:29;94600.00;;;5.29;100.00
30110;BME280;14965;50.660;13.226;2023-02-19T06:38:58;94595.72;;;5.28;100.00
30110;BME280;14965;50.660;13.226;2023-02-19T06:41:24;94591.84;;;5.25;100.00
30110;BME280;14965;50.660;13.226;2023-02-19T06:43:50;94606.38;;;5.22;100.00
30110;BME280;14965;50.660;13.226;2023-02-19T06:46:16;94628.63;;;5.24;100.00
30110;BME280;14965;50.660;13.226;2023-02-19T06:48:44;94596.72;;;5.11;100.00
30110;BME280;14965;50.660;13.226;2023-02-19T06:51:12;94635.09;;;5.07;100.00
30110;BME280;14965;50.660;13.226;2023-02-19T06:53:38;94629.66;;;5.04;100.00
30110;BME280;14965;50.660;13.226;2023-02-19T06:56:07;94636.75;;;4.97;100.00
30110;BME280;14965;50.660;13.226;2023-02-19T06:58:45;94641.84;;;4.95;100.00
30110;BME280;14965;50.660;13.226;2023-02-19T07:01:11;94649.00;;;4.86;100.00
30110;BME280;14965;50.660;13.226;2023-02-19T07:03:37;94642.03;;;4.78;100.00
30110;BME280;14965;50.660;13.226;2023-02-19T07:06:05;94642.03;;;4.78;100.00
30110;BME280;14965;50.660;13.226;2023-02-19T07:08:31;94641.31;;;4.73;100.00
30110;BME280;14965;50.660;13.226;2023-02-19T07:10:57;94634.28;;;4.72;100.00
30110;BME280;14965;50.660;13.226;2023-02-19T07:13:24;94642.53;;;4.69;100.00
30110;BME280;14965;50.660;13.226;2023-02-19T07:15:50;94655.81;;;4.67;100.00
30110;BME280;14965;50.660;13.226;2023-02-19T07:18:16;94656.69;;;4.60;100.00
30110;BME280;14965;50.660;13.226;2023-02-19T07:20:42;94672.75;;;4.51;100.00
30110;BME280;14965;50.660;13.226;2023-02-19T07:23:09;94688.03;;;4.48;100.00
30110;BME280;14965;50.660;13.226;2023-02-19T07:25:37;94675.53;;;4.47;100.00
30110;BME280;14965;50.660;13.226;2023-02-19T07:28:03;94675.94;;;4.46;100.00
30110;BME280;14965;50.660;13.226;2023-02-19T07:30:29;94674.75;;;4.47;100.00
30110;BME280;14965;50.660;13.226;2023-02-19T07:32:55;94659.50;;;4.49;100.00
30110;BME280;14965;50.660;13.226;2023-02-19T07:35:21;94658.34;;;4.47;100.00
30110;BME280;14965;50.660;13.226;2023-02-19T07:37:47;94673.59;;;4.48;100.00
30110;BME280;14965;50.660;13.226;2023-02-19T07:40:14;94679.81;;;4.48;100.00
30110;BME280;14965;50.660;13.226;2023-02-19T07:42:40;94674.34;;;4.48;100.00
30110;BME280;14965;50.660;13.226;2023-02-19T07:45:07;94665.75;;;4.50;100.00
30110;BME280;14965;50.660;13.226;2023-02-19T07:47:33;94667.69;;;4.53;100.00
30110;BME280;14965;50.660;13.226;2023-02-19T07:49:59;94661.03;;;4.54;100.00
30110;BME280;14965;50.660;13.226;2023-02-19T07:52:25;94663.38;;;4.56;100.00
30110;BME280;14965;50.660;13.226;2023-02-19T07:54:51;94665.69;;;4.57;100.00
30110;BME280;14965;50.660;13.226;2023-02-19T07:57:19;94680.47;;;4.63;100.00
30110;BME280;14965;50.660;13.226;2023-02-19T07:59:45;94674.97;;;4.67;100.00
30110;BME280;14965;50.660;13.226;2023-02-19T08:02:15;94670.69;;;4.66;100.00
30110;BME280;14965;50.660;13.226;2023-02-19T08:04:42;94679.25;;;4.68;100.00
30110;BME280;14965;50.660;13.226;2023-02-19T08:07:07;94674.53;;;4.72;100.00
30110;BME280;14965;50.660;13.226;2023-02-19T08:09:33;94680.78;;;4.72;100.00
30110;BME280;14965;50.660;13.226;2023-02-19T08:11:59;94678.44;;;4.71;100.00
30110;BME280;14965;50.660;13.226;2023-02-19T08:14:27;94675.72;;;4.71;100.00
30110;BME280;14965;50.660;13.226;2023-02-19T08:16:53;94683.84;;;4.78;100.00
30110;BME280;14965;50.660;13.226;2023-02-19T08:19:20;94681.94;;;4.75;100.00
30110;BME280;14965;50.660;13.226;2023-02-19T08:21:46;94678.00;;;4.76;100.00
30110;BME280;14965;50.660;13.226;2023-02-19T08:24:12;94682.66;;;4.79;100.00
30110;BME280;14965;50.660;13.226;2023-02-19T08:26:38;94691.63;;;4.83;100.00
30110;BME280;14965;50.660;13.226;2023-02-19T08:29:05;94693.13;;;4.88;100.00
30110;BME280;14965;50.660;13.226;2023-02-19T08:31:33;94691.16;;;4.92;100.00
30110;BME280;14965;50.660;13.226;2023-02-19T08:33:59;94693.88;;;4.92;100.00
30110;BME280;14965;50.660;13.226;2023-02-19T08:36:25;94695.50;;;4.89;100.00
30110;BME280;14965;50.660;13.226;2023-02-19T08:38:51;94692.75;;;4.89;100.00
30110;BME280;14965;50.660;13.226;2023-02-19T08:41:17;94705.63;;;4.89;100.00
30110;BME280;14965;50.660;13.226;2023-02-19T08:43:43;94701.72;;;4.90;100.00
30110;BME280;14965;50.660;13.226;2023-02-19T08:46:11;94715.00;;;4.91;100.00
30110;BME280;14965;50.660;13.226;2023-02-19T08:48:39;94707.22;;;4.86;100.00
30110;BME280;14965;50.660;13.226;2023-02-19T08:51:07;94715.81;;;4.85;100.00
30110;BME280;14965;50.660;13.226;2023-02-19T08:53:36;94721.72;;;4.83;100.00
30110;BME280;14965;50.660;13.226;2023-02-19T08:56:04;94729.56;;;4.81;100.00
30110;BME280;14965;50.660;13.226;2023-02-19T08:58:29;94729.94;;;4.80;100.00
30110;BME280;14965;50.660;13.226;2023-02-19T09:00:55;94733.47;;;4.80;100.00
30110;BME280;14965;50.660;13.226;2023-02-19T09:03:21;94731.09;;;4.86;100.00
30110;BME280;14965;50.660;13.226;2023-02-19T09:05:48;94740.44;;;4.85;100.00
30110;BME280;14965;50.660;13.226;2023-02-19T09:08:14;94756.06;;;4.88;100.00
30110;BME280;14965;50.660;13.226;2023-02-19T09:10:40;94743.94;;;4.89;100.00
30110;BME280;14965;50.660;13.226;2023-02-19T09:13:06;94750.59;;;4.88;100.00
30110;BME280;14965;50.660;13.226;2023-02-19T09:15:32;94750.59;;;4.88;100.00
30110;BME280;14965;50.660;13.226;2023-02-19T09:17:58;94762.34;;;4.85;100.00
30110;BME280;14965;50.660;13.226;2023-02-19T09:20:24;94762.34;;;4.85;100.00
30110;BME280;14965;50.660;13.226;2023-02-19T09:22:57;94772.50;;;4.88;100.00
30110;BME280;14965;50.660;13.226;2023-02-19T09:25:23;94782.25;;;4.89;100.00
30110;BME280;14965;50.660;13.226;2023-02-19T09:27:49;94794.34;;;4.91;100.00
30110;BME280;14965;50.660;13.226;2023-02-19T09:30:18;94837.81;;;4.82;100.00
30110;BME280;14965;50.660;13.226;2023-02-19T09:32:44;94849.38;;;4.48;100.00
30110;BME280;14965;50.660;13.226;2023-02-19T09:35:10;94847.97;;;4.19;100.00
30110;BME280;14965;50.660;13.226;2023-02-19T09:37:36;94863.63;;;4.00;100.00
30110;BME280;14965;50.660;13.226;2023-02-19T09:40:08;94866.09;;;3.59;100.00
30110;BME280;14965;50.660;13.226;2023-02-19T09:42:42;94872.38;;;3.60;100.00
30110;BME280;14965;50.660;13.226;2023-02-19T09:45:18;94883.28;;;3.56;100.00
30110;BME280;14965;50.660;13.226;2023-02-19T09:47:47;94870.00;;;3.72;100.00
30110;BME280;14965;50.660;13.226;2023-02-19T09:50:18;94885.22;;;3.70;100.00
30110;BME280;14965;50.660;13.226;2023-02-19T09:52:50;94876.25;;;3.59;100.00
30110;BME280;14965;50.660;13.226;2023-02-19T09:55:29;94880.16;;;3.68;100.00
30110;BME280;14965;50.660;13.226;2023-02-19T09:57:58;94884.03;;;3.67;100.00
30110;BME280;14965;50.660;13.226;2023-02-19T10:00:26;94886.38;;;3.72;100.00
30110;BME280;14965;50.660;13.226;2023-02-19T10:03:00;94894.59;;;3.58;100.00
30110;BME280;14965;50.660;13.226;2023-02-19T10:05:28;94914.50;;;3.34;100.00
30110;BME280;14965;50.660;13.226;2023-02-19T10:07:55;94911.78;;;3.27;100.00
30110;BME280;14965;50.660;13.226;2023-02-19T10:10:31;94922.28;;;3.17;100.00
30110;BME280;14965;50.660;13.226;2023-02-19T10:13:12;94927.75;;;3.21;100.00
30110;BME280;14965;50.660;13.226;2023-02-19T10:15:46;94937.50;;;3.11;100.00
30110;BME280;14965;50.660;13.226;2023-02-19T10:18:17;94953.47;;;3.09;100.00
30110;BME280;14965;50.660;13.226;2023-02-19T10:20:44;94947.63;;;2.89;100.00
30110;BME280;14965;50.660;13.226;2023-02-19T10:23:13;94952.66;;;2.77;100.00
30110;BME280;14965;50.660;13.226;2023-02-19T10:25:48;94963.16;;;2.74;100.00
30110;BME280;14965;50.660;13.226;2023-02-19T10:28:18;94956.53;;;2.79;100.00
30110;BME280;14965;50.660;13.226;2023-02-19T10:30:50;94968.66;;;2.89;100.00
30110;BME280;14965;50.660;13.226;2023-02-19T10:33:18;94966.72;;;2.89;100.00
30110;BME280;14965;50.660;13.226;2023-02-19T10:35:56;94981.84;;;2.80;100.00
30110;BME280;14965;50.660;13.226;2023-02-19T10:38:27;94982.22;;;2.60;100.00
30110;BME280;14965;50.660;13.226;2023-02-19T10:41:05;94997.38;;;2.58;100.00
30110;BME280;14965;50.660;13.226;2023-02-19T10:43:35;94999.66;;;2.45;100.00
30110;BME280;14965;50.660;13.226;2023-02-19T10:46:06;95010.94;;;2.40;100.00
30110;BME280;14965;50.660;13.226;2023-02-19T10:48:45;95006.56;;;2.17;100.00
30110;BME280;14965;50.660;13.226;2023-02-19T10:51:12;95010.69;;;1.97;100.00
30110;BME280;14965;50.660;13.226;2023-02-19T10:53:45;95020.78;;;1.93;100.00
30110;BME280;14965;50.660;13.226;2023-02-19T10:56:15;95026.25;;;2.00;100.00
30110;BME280;14965;50.660;13.226;2023-02-19T10:58:47;95029.84;;;2.11;100.00
30110;BME280;14965;50.660;13.226;2023-02-19T11:01:19;95035.72;;;2.13;100.00
30110;BME280;14965;50.660;13.226;2023-02-19T11:03:47;95035.75;;;2.24;100.00
30110;BME280;14965;50.660;13.226;2023-02-19T11:06:18;95036.63;;;2.39;100.00
30110;BME280;14965;50.660;13.226;2023-02-19T11:08:53;95037.81;;;2.45;100.00
30110;BME280;14965;50.660;13.226;2023-02-19T11:11:27;95054.44;;;2.22;100.00
30110;BME280;14965;50.660;13.226;2023-02-19T11:13:59;95054.25;;;1.93;100.00
30110;BME280;14965;50.660;13.226;2023-02-19T11:16:47;95074.00;;;1.83;100.00
30110;BME280;14965;50.660;13.226;2023-02-19T11:22:28;95069.94;;;1.63;100.00
30110;BME280;14965;50.660;13.226;2023-02-19T11:23:16;95083.22;;;1.68;100.00
30110;BME280;14965;50.660;13.226;2023-02-19T11:25:51;95080.41;;;1.57;100.00
30110;BME280;14965;50.660;13.226;2023-02-19T11:29:23;95077.38;;;1.66;100.00
30110;BME280;14965;50.660;13.226;2023-02-19T11:36:19;95087.81;;;2.08;100.00
30110;BME280;14965;50.660;13.226;2023-02-19T11:39:01;95093.00;;;2.24;100.00
30110;BME280;14965;50.660;13.226;2023-02-19T11:45:39;95090.78;;;2.44;100.00
30110;BME280;14965;50.660;13.226;2023-02-19T11:48:52;95092.03;;;2.57;100.00
30110;BME280;14965;50.660;13.226;2023-02-19T11:55:12;95097.41;;;2.46;100.00
30110;BME280;14965;50.660;13.226;2023-02-19T11:58:09;95102.78;;;2.32;100.00
30110;BME280;14965;50.660;13.226;2023-02-19T12:01:14;95102.31;;;2.23;100.00
30110;BME280;14965;50.660;13.226;2023-02-19T12:04:47;95105.41;;;2.18;100.00
30110;BME280;14965;50.660;13.226;2023-02-19T12:07:41;95124.13;;;2.23;100.00
30110;BME280;14965;50.660;13.226;2023-02-19T12:10:20;95120.22;;;2.24;100.00
30110;BME280;14965;50.660;13.226;2023-02-19T12:13:01;95139.38;;;2.31;100.00
30110;BME280;14965;50.660;13.226;2023-02-19T12:15:48;95133.13;;;2.31;100.00
30110;BME280;14965;50.660;13.226;2023-02-19T12:21:41;95133.72;;;2.61;100.00
30110;BME280;14965;50.660;13.226;2023-02-19T12:27:43;95144.34;;;2.77;100.00
30110;BME280;14965;50.660;13.226;2023-02-19T12:30:30;95150.56;;;2.78;100.00
30110;BME280;14965;50.660;13.226;2023-02-19T12:33:19;95145.16;;;2.85;100.00
30110;BME280;14965;50.660;13.226;2023-02-19T12:36:04;95150.59;;;2.88;100.00
30110;BME280;14965;50.660;13.226;2023-02-19T12:38:42;95149.50;;;2.93;100.00
30110;BME280;14965;50.660;13.226;2023-02-19T12:41:27;95145.63;;;2.97;100.00
30110;BME280;14965;50.660;13.226;2023-02-19T12:44:03;95148.38;;;3.01;100.00
30110;BME280;14965;50.660;13.226;2023-02-19T12:46:37;95147.94;;;2.95;100.00
30110;BME280;14965;50.660;13.226;2023-02-19T12:49:12;95152.22;;;2.96;100.00
30110;BME280;14965;50.660;13.226;2023-02-19T12:51:44;95154.97;;;3.04;100.00
30110;BME280;14965;50.660;13.226;2023-02-19T12:54:16;95172.50;;;2.99;100.00
30110;BME280;14965;50.660;13.226;2023-02-19T12:56:49;95174.06;;;3.00;100.00
30110;BME280;14965;50.660;13.226;2023-02-19T12:59:23;95170.94;;;2.98;100.00
30110;BME280;14965;50.660;13.226;2023-02-19T13:01:59;95170.94;;;2.98;100.00
30110;BME280;14965;50.660;13.226;2023-02-19T13:04:41;95178.66;;;2.82;100.00
30110;BME280;14965;50.660;13.226;2023-02-19T13:07:16;95183.31;;;2.81;100.00
30110;BME280;14965;50.660;13.226;2023-02-19T13:09:50;95179.88;;;2.95;100.00
30110;BME280;14965;50.660;13.226;2023-02-19T13:12:24;95177.97;;;3.03;100.00
30110;BME280;14965;50.660;13.226;2023-02-19T13:14:57;95181.47;;;2.99;100.00
30110;BME280;14965;50.660;13.226;2023-02-19T13:17:32;95178.34;;;2.97;100.00
30110;BME280;14965;50.660;13.226;2023-02-19T13:20:13;95177.25;;;3.13;100.00
30110;BME280;14965;50.660;13.226;2023-02-19T13:22:51;95179.19;;;3.12;100.00
30110;BME280;14965;50.660;13.226;2023-02-19T13:25:40;95180.75;;;3.17;100.00
30110;BME280;14965;50.660;13.226;2023-02-19T13:28:30;95174.16;;;3.21;100.00
30110;BME280;14965;50.660;13.226;2023-02-19T13:31:25;95175.00;;;3.33;100.00